Terminal Aerodrome Forecast
Issued by NWS

Home | Current Version | Previous Version | Text Only | Print | Product List | Glossary On
Versions: 1 2 3 4 5 6 7 8 9 10 11 12 13
515
FTUS42 TJSJ 280520
TAFJBQ
TAF
TJBQ 280520Z 2806/2906 VRB04KT P6SM FEW030
     FM281200 07007KT P6SM SCT250
     FM282330 14004KT P6SM SCT028 SCT040
      AMD NOT SKED TIL 281100=

USA.gov is the U.S. government's official web portal to all federal, state and local government web resources and services.